Elverson, Pennsylvania
Current Conditions -  °F | °C
As of 10:55 PM on Wednesday 22 Oct 2014 (Local Time) from KMQS Reporting Station
Overcast Overcast  
Wind Chill: 10°   Ceiling: 2700
Heat Index: 10°   Visibility: 10mi
Dew Point:   Wind: 17mph
Humidity: 87%   Direction: 330°NNW
Pressure: 29.86"   Gusts: 23mph
Location:  40.16°N, 75.83°W
Report Text: KMQS 230255Z AUTO 33015G20KT 10SM FEW021 OVC027 10/08 A2986 RMK AO2
Loading
Personal Weather Stations






























Interactive Weather Map
Tropical Storm Tracking
New forecast layout! Learn more

10-Day Weather Forecast

Advertisements
Track Severe Weather on mobile